sensor_id;sensor_type;location;lat;lon;timestamp;pressure;altitude;pressure_sealevel;temperature;humidity
28701;BME280;15877;52.344;16.790;2023-02-19T00:00:37;100347.80;;;7.30;76.42
28701;BME280;15877;52.344;16.790;2023-02-19T00:03:30;100342.64;;;7.29;76.70
28701;BME280;15877;52.344;16.790;2023-02-19T00:06:04;100348.11;;;7.27;76.47
28701;BME280;15877;52.344;16.790;2023-02-19T00:08:37;100345.81;;;7.27;76.57
28701;BME280;15877;52.344;16.790;2023-02-19T00:11:12;100346.10;;;7.33;76.32
28701;BME280;15877;52.344;16.790;2023-02-19T00:13:47;100343.38;;;7.32;76.21
28701;BME280;15877;52.344;16.790;2023-02-19T00:16:21;100340.26;;;7.33;76.23
28701;BME280;15877;52.344;16.790;2023-02-19T00:18:58;100340.52;;;7.34;76.19
28701;BME280;15877;52.344;16.790;2023-02-19T00:21:31;100345.02;;;7.34;76.11
28701;BME280;15877;52.344;16.790;2023-02-19T00:24:06;100344.34;;;7.28;76.24
28701;BME280;15877;52.344;16.790;2023-02-19T00:26:38;100339.57;;;7.29;76.21
28701;BME280;15877;52.344;16.790;2023-02-19T00:29:13;100335.09;;;7.32;76.25
28701;BME280;15877;52.344;16.790;2023-02-19T00:31:48;100337.27;;;7.39;75.85
28701;BME280;15877;52.344;16.790;2023-02-19T00:34:21;100340.97;;;7.43;75.67
28701;BME280;15877;52.344;16.790;2023-02-19T00:36:54;100337.83;;;7.40;75.83
28701;BME280;15877;52.344;16.790;2023-02-19T00:39:27;100326.45;;;7.29;76.04
28701;BME280;15877;52.344;16.790;2023-02-19T00:41:59;100340.42;;;7.38;76.04
28701;BME280;15877;52.344;16.790;2023-02-19T00:44:32;100343.06;;;7.37;75.94
28701;BME280;15877;52.344;16.790;2023-02-19T00:47:04;100342.06;;;7.33;76.07
28701;BME280;15877;52.344;16.790;2023-02-19T00:49:38;100345.17;;;7.41;75.85
28701;BME280;15877;52.344;16.790;2023-02-19T00:52:10;100332.98;;;7.30;75.98
28701;BME280;15877;52.344;16.790;2023-02-19T00:54:43;100346.55;;;7.39;76.16
28701;BME280;15877;52.344;16.790;2023-02-19T00:57:15;100329.88;;;7.30;76.37
28701;BME280;15877;52.344;16.790;2023-02-19T00:59:48;100342.12;;;7.39;75.96
28701;BME280;15877;52.344;16.790;2023-02-19T01:02:20;100349.81;;;7.43;75.42
28701;BME280;15877;52.344;16.790;2023-02-19T01:04:53;100350.44;;;7.40;74.74
28701;BME280;15877;52.344;16.790;2023-02-19T01:07:26;100350.40;;;7.27;74.86
28701;BME280;15877;52.344;16.790;2023-02-19T01:09:59;100345.68;;;7.14;75.03
28701;BME280;15877;52.344;16.790;2023-02-19T01:12:32;100341.27;;;7.23;75.07
28701;BME280;15877;52.344;16.790;2023-02-19T01:15:05;100335.18;;;7.14;75.05
28701;BME280;15877;52.344;16.790;2023-02-19T01:17:38;100321.85;;;7.09;75.54
28701;BME280;15877;52.344;16.790;2023-02-19T01:20:13;100320.95;;;7.09;75.39
28701;BME280;15877;52.344;16.790;2023-02-19T01:22:45;100319.82;;;7.08;75.55
28701;BME280;15877;52.344;16.790;2023-02-19T01:25:18;100313.29;;;7.03;75.77
28701;BME280;15877;52.344;16.790;2023-02-19T01:27:50;100314.72;;;7.08;75.82
28701;BME280;15877;52.344;16.790;2023-02-19T01:30:23;100301.05;;;7.04;75.62
28701;BME280;15877;52.344;16.790;2023-02-19T01:32:56;100314.35;;;7.09;75.82
28701;BME280;15877;52.344;16.790;2023-02-19T01:35:28;100314.66;;;7.16;75.75
28701;BME280;15877;52.344;16.790;2023-02-19T01:38:13;100315.14;;;7.16;75.54
28701;BME280;15877;52.344;16.790;2023-02-19T01:41:01;100315.16;;;7.22;75.38
28701;BME280;15877;52.344;16.790;2023-02-19T01:43:34;100314.31;;;7.13;75.48
28701;BME280;15877;52.344;16.790;2023-02-19T01:46:28;100313.59;;;7.10;75.47
28701;BME280;15877;52.344;16.790;2023-02-19T01:49:03;100309.10;;;7.08;75.67
28701;BME280;15877;52.344;16.790;2023-02-19T01:51:40;100299.66;;;7.09;75.47
28701;BME280;15877;52.344;16.790;2023-02-19T01:54:17;100301.61;;;7.08;75.29
28701;BME280;15877;52.344;16.790;2023-02-19T01:56:51;100299.19;;;7.06;75.42
28701;BME280;15877;52.344;16.790;2023-02-19T01:59:24;100294.61;;;7.07;75.50
28701;BME280;15877;52.344;16.790;2023-02-19T02:01:57;100293.21;;;7.07;75.43
28701;BME280;15877;52.344;16.790;2023-02-19T02:04:32;100291.23;;;7.12;75.41
28701;BME280;15877;52.344;16.790;2023-02-19T02:07:05;100291.83;;;7.16;75.22
28701;BME280;15877;52.344;16.790;2023-02-19T02:09:58;100283.77;;;7.13;75.29
28701;BME280;15877;52.344;16.790;2023-02-19T02:12:48;100280.16;;;7.23;74.92
28701;BME280;15877;52.344;16.790;2023-02-19T02:15:21;100274.23;;;7.16;74.97
28701;BME280;15877;52.344;16.790;2023-02-19T02:17:58;100271.98;;;7.10;75.46
28701;BME280;15877;52.344;16.790;2023-02-19T02:20:41;100269.46;;;7.15;75.21
28701;BME280;15877;52.344;16.790;2023-02-19T02:23:33;100264.19;;;7.13;75.42
28701;BME280;15877;52.344;16.790;2023-02-19T02:26:23;100259.54;;;7.18;75.22
28701;BME280;15877;52.344;16.790;2023-02-19T02:29:23;100259.77;;;7.15;75.41
28701;BME280;15877;52.344;16.790;2023-02-19T02:32:04;100255.14;;;7.23;74.88
28701;BME280;15877;52.344;16.790;2023-02-19T02:34:47;100249.73;;;7.19;75.04
28701;BME280;15877;52.344;16.790;2023-02-19T02:37:24;100241.42;;;7.19;75.22
28701;BME280;15877;52.344;16.790;2023-02-19T02:39:59;100239.63;;;7.17;75.13
28701;BME280;15877;52.344;16.790;2023-02-19T02:42:37;100242.88;;;7.15;75.25
28701;BME280;15877;52.344;16.790;2023-02-19T02:45:25;100238.64;;;7.13;75.33
28701;BME280;15877;52.344;16.790;2023-02-19T02:48:18;100241.02;;;7.19;75.46
28701;BME280;15877;52.344;16.790;2023-02-19T02:50:56;100234.48;;;7.19;75.52
28701;BME280;15877;52.344;16.790;2023-02-19T02:53:36;100232.54;;;7.17;75.73
28701;BME280;15877;52.344;16.790;2023-02-19T02:56:29;100214.23;;;7.13;75.78
28701;BME280;15877;52.344;16.790;2023-02-19T02:59:04;100215.98;;;7.29;75.42
28701;BME280;15877;52.344;16.790;2023-02-19T03:01:39;100216.38;;;7.31;75.37
28701;BME280;15877;52.344;16.790;2023-02-19T03:04:34;100217.68;;;7.39;75.18
28701;BME280;15877;52.344;16.790;2023-02-19T03:07:35;100200.48;;;7.35;74.93
28701;BME280;15877;52.344;16.790;2023-02-19T03:10:11;100211.60;;;7.47;74.82
28701;BME280;15877;52.344;16.790;2023-02-19T03:12:45;100215.60;;;7.46;74.61
28701;BME280;15877;52.344;16.790;2023-02-19T03:15:41;100198.60;;;7.33;74.77
28701;BME280;15877;52.344;16.790;2023-02-19T03:18:34;100212.52;;;7.38;75.10
28701;BME280;15877;52.344;16.790;2023-02-19T03:21:26;100205.38;;;7.40;74.91
28701;BME280;15877;52.344;16.790;2023-02-19T03:24:01;100201.70;;;7.41;75.04
28701;BME280;15877;52.344;16.790;2023-02-19T03:26:53;100197.61;;;7.36;74.98
28701;BME280;15877;52.344;16.790;2023-02-19T03:29:31;100194.90;;;7.28;75.18
28701;BME280;15877;52.344;16.790;2023-02-19T03:32:10;100193.84;;;7.14;75.93
28701;BME280;15877;52.344;16.790;2023-02-19T03:34:47;100187.21;;;7.25;75.57
28701;BME280;15877;52.344;16.790;2023-02-19T03:37:26;100184.95;;;7.35;75.33
28701;BME280;15877;52.344;16.790;2023-02-19T03:40:01;100184.02;;;7.31;75.39
28701;BME280;15877;52.344;16.790;2023-02-19T03:42:42;100178.65;;;7.31;75.49
28701;BME280;15877;52.344;16.790;2023-02-19T03:45:26;100180.02;;;7.34;75.56
28701;BME280;15877;52.344;16.790;2023-02-19T03:48:14;100180.30;;;7.38;75.45
28701;BME280;15877;52.344;16.790;2023-02-19T03:50:51;100181.40;;;7.41;75.20
28701;BME280;15877;52.344;16.790;2023-02-19T03:53:29;100179.11;;;7.36;75.52
28701;BME280;15877;52.344;16.790;2023-02-19T03:56:08;100181.48;;;7.38;75.65
28701;BME280;15877;52.344;16.790;2023-02-19T03:58:48;100178.47;;;7.38;75.83
28701;BME280;15877;52.344;16.790;2023-02-19T04:01:26;100169.73;;;7.41;75.80
28701;BME280;15877;52.344;16.790;2023-02-19T04:04:05;100172.73;;;7.53;75.56
28701;BME280;15877;52.344;16.790;2023-02-19T04:06:40;100179.45;;;7.50;75.70
28701;BME280;15877;52.344;16.790;2023-02-19T04:09:15;100182.55;;;7.48;75.76
28701;BME280;15877;52.344;16.790;2023-02-19T04:11:50;100170.82;;;7.47;75.37
28701;BME280;15877;52.344;16.790;2023-02-19T04:14:27;100189.73;;;7.58;75.10
28701;BME280;15877;52.344;16.790;2023-02-19T04:17:02;100191.76;;;7.57;74.98
28701;BME280;15877;52.344;16.790;2023-02-19T04:19:37;100191.12;;;7.54;75.11
28701;BME280;15877;52.344;16.790;2023-02-19T04:22:13;100193.21;;;7.51;75.23
28701;BME280;15877;52.344;16.790;2023-02-19T04:24:49;100207.26;;;7.45;75.57
28701;BME280;15877;52.344;16.790;2023-02-19T04:27:23;100210.11;;;7.46;75.54
28701;BME280;15877;52.344;16.790;2023-02-19T04:29:56;100215.67;;;7.41;75.43
28701;BME280;15877;52.344;16.790;2023-02-19T04:32:29;100215.16;;;7.32;75.88
28701;BME280;15877;52.344;16.790;2023-02-19T04:35:01;100211.33;;;7.23;76.15
28701;BME280;15877;52.344;16.790;2023-02-19T04:37:34;100211.80;;;7.21;76.44
28701;BME280;15877;52.344;16.790;2023-02-19T04:40:08;100202.37;;;7.27;76.31
28701;BME280;15877;52.344;16.790;2023-02-19T04:42:40;100196.54;;;7.30;76.11
28701;BME280;15877;52.344;16.790;2023-02-19T04:45:13;100202.08;;;7.35;75.94
28701;BME280;15877;52.344;16.790;2023-02-19T04:47:46;100211.58;;;7.21;76.29
28701;BME280;15877;52.344;16.790;2023-02-19T04:50:18;100204.37;;;7.05;76.72
28701;BME280;15877;52.344;16.790;2023-02-19T04:52:51;100228.02;;;7.12;76.82
28701;BME280;15877;52.344;16.790;2023-02-19T04:55:24;100227.35;;;7.18;76.78
28701;BME280;15877;52.344;16.790;2023-02-19T04:57:57;100222.58;;;7.17;76.66
28701;BME280;15877;52.344;16.790;2023-02-19T05:00:29;100223.20;;;7.17;76.73
28701;BME280;15877;52.344;16.790;2023-02-19T05:03:04;100226.83;;;7.07;76.90
28701;BME280;15877;52.344;16.790;2023-02-19T05:05:36;100227.45;;;6.95;77.62
28701;BME280;15877;52.344;16.790;2023-02-19T05:08:09;100225.84;;;7.06;77.31
28701;BME280;15877;52.344;16.790;2023-02-19T05:10:41;100222.91;;;7.03;77.27
28701;BME280;15877;52.344;16.790;2023-02-19T05:13:14;100219.59;;;7.05;77.17
28701;BME280;15877;52.344;16.790;2023-02-19T05:15:56;100212.25;;;7.03;77.00
28701;BME280;15877;52.344;16.790;2023-02-19T05:18:30;100214.67;;;7.05;77.14
28701;BME280;15877;52.344;16.790;2023-02-19T05:21:03;100216.33;;;7.04;77.09
28701;BME280;15877;52.344;16.790;2023-02-19T05:23:36;100204.03;;;6.91;77.07
28701;BME280;15877;52.344;16.790;2023-02-19T05:26:11;100219.58;;;7.00;77.21
28701;BME280;15877;52.344;16.790;2023-02-19T05:28:44;100216.74;;;6.93;77.33
28701;BME280;15877;52.344;16.790;2023-02-19T05:31:17;100216.03;;;6.91;77.54
28701;BME280;15877;52.344;16.790;2023-02-19T05:33:50;100220.35;;;6.78;77.85
28701;BME280;15877;52.344;16.790;2023-02-19T05:36:23;100219.85;;;6.68;78.23
28701;BME280;15877;52.344;16.790;2023-02-19T05:38:56;100220.96;;;6.71;78.28
28701;BME280;15877;52.344;16.790;2023-02-19T05:41:30;100218.46;;;6.74;78.41
28701;BME280;15877;52.344;16.790;2023-02-19T05:44:03;100221.81;;;6.73;78.17
28701;BME280;15877;52.344;16.790;2023-02-19T05:46:35;100216.92;;;6.59;78.50
28701;BME280;15877;52.344;16.790;2023-02-19T05:49:08;100219.67;;;6.54;78.63
28701;BME280;15877;52.344;16.790;2023-02-19T05:51:40;100226.16;;;6.45;78.90
28701;BME280;15877;52.344;16.790;2023-02-19T05:54:13;100226.50;;;6.42;78.94
28701;BME280;15877;52.344;16.790;2023-02-19T05:56:47;100233.58;;;6.48;78.82
28701;BME280;15877;52.344;16.790;2023-02-19T05:59:19;100229.59;;;6.47;78.64
28701;BME280;15877;52.344;16.790;2023-02-19T06:01:53;100229.30;;;6.41;78.71
28701;BME280;15877;52.344;16.790;2023-02-19T06:04:28;100229.11;;;6.38;78.70
28701;BME280;15877;52.344;16.790;2023-02-19T06:07:01;100228.46;;;6.37;78.86
28701;BME280;15877;52.344;16.790;2023-02-19T06:09:33;100224.02;;;6.45;78.38
28701;BME280;15877;52.344;16.790;2023-02-19T06:12:06;100228.41;;;6.45;77.96
28701;BME280;15877;52.344;16.790;2023-02-19T06:14:39;100227.61;;;6.46;77.49
28701;BME280;15877;52.344;16.790;2023-02-19T06:17:11;100233.94;;;6.43;77.31
28701;BME280;15877;52.344;16.790;2023-02-19T06:19:44;100223.79;;;6.34;77.10
28701;BME280;15877;52.344;16.790;2023-02-19T06:22:17;100238.02;;;6.33;77.16
28701;BME280;15877;52.344;16.790;2023-02-19T06:24:49;100221.67;;;6.12;77.54
28701;BME280;15877;52.344;16.790;2023-02-19T06:27:21;100242.23;;;6.32;77.29
28701;BME280;15877;52.344;16.790;2023-02-19T06:29:54;100245.36;;;6.31;76.87
28701;BME280;15877;52.344;16.790;2023-02-19T06:32:27;100252.98;;;6.35;76.89
28701;BME280;15877;52.344;16.790;2023-02-19T06:34:59;100259.36;;;6.35;76.42
28701;BME280;15877;52.344;16.790;2023-02-19T06:37:32;100261.23;;;6.32;76.32
28701;BME280;15877;52.344;16.790;2023-02-19T06:40:06;100266.03;;;6.23;76.46
28701;BME280;15877;52.344;16.790;2023-02-19T06:42:38;100264.55;;;6.32;76.16
28701;BME280;15877;52.344;16.790;2023-02-19T06:45:11;100271.06;;;6.40;76.16
28701;BME280;15877;52.344;16.790;2023-02-19T06:47:45;100269.45;;;6.40;75.91
28701;BME280;15877;52.344;16.790;2023-02-19T06:50:18;100260.75;;;6.23;75.95
28701;BME280;15877;52.344;16.790;2023-02-19T06:52:50;100279.52;;;6.43;75.63
28701;BME280;15877;52.344;16.790;2023-02-19T06:55:23;100285.38;;;6.39;75.61
28701;BME280;15877;52.344;16.790;2023-02-19T06:57:55;100283.48;;;6.41;75.60
28701;BME280;15877;52.344;16.790;2023-02-19T07:00:29;100282.09;;;6.42;75.57
28701;BME280;15877;52.344;16.790;2023-02-19T07:03:01;100286.67;;;6.47;75.43
28701;BME280;15877;52.344;16.790;2023-02-19T07:05:36;100286.08;;;6.39;75.56
28701;BME280;15877;52.344;16.790;2023-02-19T07:08:08;100285.88;;;6.47;75.42
28701;BME280;15877;52.344;16.790;2023-02-19T07:10:40;100287.38;;;6.53;75.17
28701;BME280;15877;52.344;16.790;2023-02-19T07:13:13;100286.01;;;6.50;75.23
28701;BME280;15877;52.344;16.790;2023-02-19T07:15:45;100289.54;;;6.50;74.97
28701;BME280;15877;52.344;16.790;2023-02-19T07:18:19;100287.64;;;6.41;75.16
28701;BME280;15877;52.344;16.790;2023-02-19T07:20:52;100293.07;;;6.45;74.99
28701;BME280;15877;52.344;16.790;2023-02-19T07:23:25;100293.31;;;6.47;75.16
28701;BME280;15877;52.344;16.790;2023-02-19T07:25:58;100297.68;;;6.50;74.96
28701;BME280;15877;52.344;16.790;2023-02-19T07:28:30;100299.45;;;6.56;74.99
28701;BME280;15877;52.344;16.790;2023-02-19T07:31:05;100303.56;;;6.51;74.81
28701;BME280;15877;52.344;16.790;2023-02-19T07:33:38;100304.23;;;6.52;74.84
28701;BME280;15877;52.344;16.790;2023-02-19T07:36:11;100308.52;;;6.58;74.43
28701;BME280;15877;52.344;16.790;2023-02-19T07:38:44;100293.66;;;6.46;74.59
28701;BME280;15877;52.344;16.790;2023-02-19T07:41:16;100306.94;;;6.49;74.53
28701;BME280;15877;52.344;16.790;2023-02-19T07:43:50;100306.45;;;6.55;74.53
28701;BME280;15877;52.344;16.790;2023-02-19T07:46:23;100307.30;;;6.66;74.39
28701;BME280;15877;52.344;16.790;2023-02-19T07:48:56;100315.26;;;6.72;73.83
28701;BME280;15877;52.344;16.790;2023-02-19T07:51:29;100316.42;;;6.69;74.08
28701;BME280;15877;52.344;16.790;2023-02-19T07:54:01;100314.23;;;6.65;74.44
28701;BME280;15877;52.344;16.790;2023-02-19T07:56:34;100315.42;;;6.70;74.16
28701;BME280;15877;52.344;16.790;2023-02-19T07:59:06;100322.60;;;6.63;74.21
28701;BME280;15877;52.344;16.790;2023-02-19T08:01:39;100323.16;;;6.62;74.24
28701;BME280;15877;52.344;16.790;2023-02-19T08:04:29;100326.89;;;6.57;74.29
28701;BME280;15877;52.344;16.790;2023-02-19T08:07:02;100329.84;;;6.58;74.06
28701;BME280;15877;52.344;16.790;2023-02-19T08:09:35;100333.65;;;6.66;74.21
28701;BME280;15877;52.344;16.790;2023-02-19T08:12:09;100332.30;;;6.59;74.07
28701;BME280;15877;52.344;16.790;2023-02-19T08:14:59;100331.67;;;6.61;73.91
28701;BME280;15877;52.344;16.790;2023-02-19T08:17:32;100333.54;;;6.63;74.14
28701;BME280;15877;52.344;16.790;2023-02-19T08:20:05;100346.97;;;6.72;74.11
28701;BME280;15877;52.344;16.790;2023-02-19T08:22:38;100352.93;;;6.73;73.88
28701;BME280;15877;52.344;16.790;2023-02-19T08:25:10;100353.59;;;6.74;73.64
28701;BME280;15877;52.344;16.790;2023-02-19T08:27:43;100358.67;;;6.82;73.44
28701;BME280;15877;52.344;16.790;2023-02-19T08:30:15;100362.12;;;6.88;73.11
28701;BME280;15877;52.344;16.790;2023-02-19T08:32:48;100362.73;;;6.92;72.91
28701;BME280;15877;52.344;16.790;2023-02-19T08:35:22;100358.95;;;6.87;72.89
28701;BME280;15877;52.344;16.790;2023-02-19T08:37:57;100373.86;;;6.89;72.80
28701;BME280;15877;52.344;16.790;2023-02-19T08:40:29;100368.70;;;6.84;72.88
28701;BME280;15877;52.344;16.790;2023-02-19T08:43:07;100374.15;;;6.82;73.22
28701;BME280;15877;52.344;16.790;2023-02-19T08:45:43;100385.46;;;6.89;72.47
28701;BME280;15877;52.344;16.790;2023-02-19T08:48:17;100395.51;;;6.87;71.61
28701;BME280;15877;52.344;16.790;2023-02-19T08:50:55;100390.98;;;6.85;71.68
28701;BME280;15877;52.344;16.790;2023-02-19T08:53:29;100402.84;;;6.88;71.21
28701;BME280;15877;52.344;16.790;2023-02-19T08:56:06;100408.71;;;6.93;70.49
28701;BME280;15877;52.344;16.790;2023-02-19T08:58:39;100409.00;;;6.90;70.33
28701;BME280;15877;52.344;16.790;2023-02-19T09:01:13;100407.75;;;6.90;69.54
28701;BME280;15877;52.344;16.790;2023-02-19T09:03:47;100406.48;;;6.99;69.54
28701;BME280;15877;52.344;16.790;2023-02-19T09:06:22;100413.83;;;6.90;69.48
28701;BME280;15877;52.344;16.790;2023-02-19T09:08:55;100413.97;;;7.01;69.62
28701;BME280;15877;52.344;16.790;2023-02-19T09:11:27;100414.66;;;7.07;69.42
28701;BME280;15877;52.344;16.790;2023-02-19T09:14:00;100414.11;;;7.09;69.93
28701;BME280;15877;52.344;16.790;2023-02-19T09:16:36;100418.64;;;7.08;70.15
28701;BME280;15877;52.344;16.790;2023-02-19T09:19:08;100427.31;;;7.14;69.58
28701;BME280;15877;52.344;16.790;2023-02-19T09:21:42;100428.21;;;7.31;69.09
28701;BME280;15877;52.344;16.790;2023-02-19T09:24:15;100431.01;;;7.23;69.02
28701;BME280;15877;52.344;16.790;2023-02-19T09:26:49;100441.64;;;7.22;68.58
28701;BME280;15877;52.344;16.790;2023-02-19T09:29:22;100436.06;;;7.23;68.25
28701;BME280;15877;52.344;16.790;2023-02-19T09:31:58;100438.56;;;7.27;68.22
28701;BME280;15877;52.344;16.790;2023-02-19T09:34:32;100447.32;;;7.26;68.19
28701;BME280;15877;52.344;16.790;2023-02-19T09:37:04;100459.25;;;7.20;68.51
28701;BME280;15877;52.344;16.790;2023-02-19T09:39:37;100463.94;;;7.21;68.72
28701;BME280;15877;52.344;16.790;2023-02-19T09:42:14;100462.26;;;7.27;66.73
28701;BME280;15877;52.344;16.790;2023-02-19T09:44:49;100474.92;;;7.23;65.39
28701;BME280;15877;52.344;16.790;2023-02-19T09:47:24;100475.27;;;7.17;66.01
28701;BME280;15877;52.344;16.790;2023-02-19T09:49:56;100482.60;;;7.15;66.42
28701;BME280;15877;52.344;16.790;2023-02-19T09:52:32;100483.13;;;7.21;66.64
28701;BME280;15877;52.344;16.790;2023-02-19T09:55:15;100488.45;;;7.40;65.03
28701;BME280;15877;52.344;16.790;2023-02-19T09:57:49;100501.29;;;7.38;64.05
28701;BME280;15877;52.344;16.790;2023-02-19T10:00:27;100501.33;;;7.28;64.47
28701;BME280;15877;52.344;16.790;2023-02-19T10:03:10;100506.80;;;7.25;64.73
28701;BME280;15877;52.344;16.790;2023-02-19T10:05:55;100501.72;;;7.28;64.88
28701;BME280;15877;52.344;16.790;2023-02-19T10:08:32;100507.80;;;7.31;64.56
28701;BME280;15877;52.344;16.790;2023-02-19T10:11:05;100512.83;;;7.22;63.30
28701;BME280;15877;52.344;16.790;2023-02-19T10:13:42;100514.96;;;7.23;63.84
28701;BME280;15877;52.344;16.790;2023-02-19T10:16:18;100514.29;;;7.31;63.65
28701;BME280;15877;52.344;16.790;2023-02-19T10:18:53;100524.48;;;7.40;62.92
28701;BME280;15877;52.344;16.790;2023-02-19T10:21:27;100531.61;;;7.41;62.38
28701;BME280;15877;52.344;16.790;2023-02-19T10:24:01;100537.99;;;7.50;62.18
28701;BME280;15877;52.344;16.790;2023-02-19T10:26:34;100545.17;;;7.49;61.57
28701;BME280;15877;52.344;16.790;2023-02-19T10:29:08;100544.64;;;7.52;61.91
28701;BME280;15877;52.344;16.790;2023-02-19T10:31:41;100548.36;;;7.43;62.18
28701;BME280;15877;52.344;16.790;2023-02-19T10:34:20;100554.11;;;7.40;61.64
28701;BME280;15877;52.344;16.790;2023-02-19T10:36:54;100554.54;;;7.46;61.24
28701;BME280;15877;52.344;16.790;2023-02-19T10:39:39;100555.30;;;7.41;61.23
28701;BME280;15877;52.344;16.790;2023-02-19T10:42:17;100552.29;;;7.50;60.25
28701;BME280;15877;52.344;16.790;2023-02-19T10:44:55;100553.86;;;7.38;60.91
28701;BME280;15877;52.344;16.790;2023-02-19T10:47:32;100562.83;;;7.46;61.10
28701;BME280;15877;52.344;16.790;2023-02-19T10:50:15;100557.15;;;7.42;61.32
28701;BME280;15877;52.344;16.790;2023-02-19T10:52:54;100560.27;;;7.42;61.37
28701;BME280;15877;52.344;16.790;2023-02-19T10:55:30;100557.09;;;7.58;61.22
28701;BME280;15877;52.344;16.790;2023-02-19T10:58:24;100557.28;;;7.74;61.19
28701;BME280;15877;52.344;16.790;2023-02-19T11:01:18;100560.90;;;7.87;60.41
28701;BME280;15877;52.344;16.790;2023-02-19T11:03:52;100555.73;;;8.02;59.59
28701;BME280;15877;52.344;16.790;2023-02-19T11:06:26;100553.85;;;8.10;58.25
28701;BME280;15877;52.344;16.790;2023-02-19T11:09:00;100554.57;;;8.15;57.36
28701;BME280;15877;52.344;16.790;2023-02-19T11:11:35;100560.84;;;8.08;57.26
28701;BME280;15877;52.344;16.790;2023-02-19T11:14:15;100564.67;;;8.01;57.24
28701;BME280;15877;52.344;16.790;2023-02-19T11:16:51;100565.80;;;7.94;58.12
28701;BME280;15877;52.344;16.790;2023-02-19T11:19:34;100568.46;;;8.05;57.96
28701;BME280;15877;52.344;16.790;2023-02-19T11:22:26;100572.63;;;7.97;57.32
28701;BME280;15877;52.344;16.790;2023-02-19T11:25:03;100576.23;;;7.78;57.71
28701;BME280;15877;52.344;16.790;2023-02-19T11:27:53;100581.15;;;7.81;57.08
28701;BME280;15877;52.344;16.790;2023-02-19T11:30:38;100587.57;;;7.77;56.48
28701;BME280;15877;52.344;16.790;2023-02-19T11:33:26;100593.81;;;7.86;56.36
28701;BME280;15877;52.344;16.790;2023-02-19T11:36:23;100602.59;;;8.02;55.77
28701;BME280;15877;52.344;16.790;2023-02-19T11:39:06;100597.59;;;8.01;56.58
28701;BME280;15877;52.344;16.790;2023-02-19T11:42:00;100601.66;;;7.98;56.47
28701;BME280;15877;52.344;16.790;2023-02-19T11:44:46;100591.84;;;8.17;55.84
28701;BME280;15877;52.344;16.790;2023-02-19T11:47:41;100599.00;;;8.23;54.94
28701;BME280;15877;52.344;16.790;2023-02-19T11:50:21;100605.80;;;8.36;54.39
28701;BME280;15877;52.344;16.790;2023-02-19T11:53:09;100610.89;;;8.47;53.72
28701;BME280;15877;52.344;16.790;2023-02-19T11:55:54;100607.89;;;8.64;53.05
28701;BME280;15877;52.344;16.790;2023-02-19T12:05:01;100600.50;;;8.73;51.87
28701;BME280;15877;52.344;16.790;2023-02-19T12:07:56;100622.73;;;8.77;51.28
28701;BME280;15877;52.344;16.790;2023-02-19T12:10:46;100625.04;;;8.61;51.14
28701;BME280;15877;52.344;16.790;2023-02-19T12:13:25;100617.66;;;8.78;51.49
28701;BME280;15877;52.344;16.790;2023-02-19T12:16:15;100625.09;;;8.92;51.10
28701;BME280;15877;52.344;16.790;2023-02-19T12:19:05;100626.20;;;8.90;50.68
28701;BME280;15877;52.344;16.790;2023-02-19T12:21:54;100639.80;;;8.75;51.02
28701;BME280;15877;52.344;16.790;2023-02-19T12:24:47;100636.89;;;8.58;51.06
28701;BME280;15877;52.344;16.790;2023-02-19T12:27:30;100631.62;;;8.66;50.82
28701;BME280;15877;52.344;16.790;2023-02-19T12:30:20;100635.48;;;8.64;50.05
28701;BME280;15877;52.344;16.790;2023-02-19T12:33:06;100638.30;;;8.65;50.22
28701;BME280;15877;52.344;16.790;2023-02-19T12:35:46;100643.14;;;8.80;50.55
28701;BME280;15877;52.344;16.790;2023-02-19T12:38:28;100644.50;;;9.03;49.73
28701;BME280;15877;52.344;16.790;2023-02-19T12:41:15;100659.01;;;8.69;50.53
28701;BME280;15877;52.344;16.790;2023-02-19T12:43:54;100655.27;;;8.56;51.20
28701;BME280;15877;52.344;16.790;2023-02-19T12:46:34;100649.23;;;8.25;51.27
28701;BME280;15877;52.344;16.790;2023-02-19T12:49:11;100669.37;;;8.41;50.63
28701;BME280;15877;52.344;16.790;2023-02-19T12:51:48;100665.42;;;8.26;50.17
28701;BME280;15877;52.344;16.790;2023-02-19T12:54:24;100652.76;;;8.23;50.28
28701;BME280;15877;52.344;16.790;2023-02-19T12:57:01;100671.33;;;8.40;49.38
28701;BME280;15877;52.344;16.790;2023-02-19T12:59:39;100671.15;;;8.60;48.57
28701;BME280;15877;52.344;16.790;2023-02-19T13:02:17;100670.10;;;8.67;48.55
28701;BME280;15877;52.344;16.790;2023-02-19T13:04:57;100675.66;;;8.82;48.68
28701;BME280;15877;52.344;16.790;2023-02-19T13:07:37;100685.88;;;8.85;49.66
28701;BME280;15877;52.344;16.790;2023-02-19T13:10:21;100692.28;;;8.87;50.05
28701;BME280;15877;52.344;16.790;2023-02-19T13:12:59;100693.45;;;8.89;49.66
28701;BME280;15877;52.344;16.790;2023-02-19T13:15:35;100694.00;;;8.90;49.36
28701;BME280;15877;52.344;16.790;2023-02-19T13:18:15;100695.89;;;8.74;49.65
28701;BME280;15877;52.344;16.790;2023-02-19T13:20:52;100697.02;;;8.65;49.90
28701;BME280;15877;52.344;16.790;2023-02-19T13:23:27;100683.92;;;8.59;50.42
28701;BME280;15877;52.344;16.790;2023-02-19T13:26:42;100683.04;;;8.73;50.76
28701;BME280;15877;52.344;16.790;2023-02-19T13:29:26;100679.79;;;8.89;50.98
28701;BME280;15877;52.344;16.790;2023-02-19T13:32:38;100678.70;;;8.95;50.15
28701;BME280;15877;52.344;16.790;2023-02-19T13:35:26;100672.51;;;9.07;49.74
28701;BME280;15877;52.344;16.790;2023-02-19T13:38:10;100677.62;;;9.05;49.15
28701;BME280;15877;52.344;16.790;2023-02-19T13:40:53;100679.65;;;9.05;48.96
28701;BME280;15877;52.344;16.790;2023-02-19T13:43:29;100679.75;;;9.06;47.56
28701;BME280;15877;52.344;16.790;2023-02-19T13:46:06;100689.60;;;9.01;46.19
28701;BME280;15877;52.344;16.790;2023-02-19T13:48:41;100686.32;;;9.00;45.71